Goliah — WDD5908 — position and weather

sailwx.info

Track history (hours):
 
Tides and Currents Weather Stations Pressure Air Temp Water Temp Dewpoint Dewpoint Depression Visibility Wind Speed Wind Dir Waves Ship Positions

Goliah

Owner: Crowley Marine Services, Seattle, WA. More information available from US FCC via Universal Licensing System and Coast Guard Vessel Documentation Center.

Last reported at 2018-Apr-24 06:52 UTC. Time now 2018-Apr-24 07:00 UTC.
Position N 38°02' W 122°09'.

Length 33 m; draft 4.8 m.

Type: Tug. MMSI: 366898250.

Date/timePositionNaut miles runAvg speedWind from/ knotsBaromVisibWave heightAir tempDewpointWater temp
2018-Apr-24 06:52N 38°02' W 122°09'1 2.5
2018-Apr-24 06:18N 38°02' W 122°07'0 0.0
2018-Apr-24 05:41N 38°02' W 122°07'0 0.2
2018-Apr-24 05:28N 38°02' W 122°07'1 2.0
2018-Apr-24 05:00N 38°02' W 122°09'3 6.0
2018-Apr-24 04:30N 38°03' W 122°12'4 8.3
2018-Apr-24 04:00N 38°04' W 122°17'4 7.4
2018-Apr-24 03:30N 38°02' W 122°21'4 8.0
2018-Apr-24 03:00N 37°60' W 122°25'5 9.6
2018-Apr-24 02:30N 37°55' W 122°27'4 8.8
2018-Apr-24 02:01N 37°51' W 122°25'510.6
2018-Apr-24 01:31N 37°48' W 122°30'0 0.9
2018-Apr-24 01:01N 37°48' W 122°30'2 3.9
2018-Apr-24 00:31N 37°49' W 122°28'4 7.2
2018-Apr-24 00:01N 37°48' W 122°24'0 0.1
2018-Apr-23 23:30N 37°48' W 122°24'0 0.0
2018-Apr-23 23:01N 37°48' W 122°24'0 0.0
2018-Apr-23 22:31N 37°48' W 122°24'0 0.0
2018-Apr-23 22:00N 37°48' W 122°24'0 0.0
2018-Apr-23 21:31N 37°48' W 122°24'0 0.0
2018-Apr-23 21:01N 37°48' W 122°24'0 0.0
2018-Apr-23 20:30N 37°48' W 122°24'0 0.0
2018-Apr-23 20:01N 37°48' W 122°24'0 0.0
2018-Apr-23 19:30N 37°48' W 122°24'0 0.0
2018-Apr-23 19:00N 37°48' W 122°24'0 0.0
2018-Apr-23 18:31N 37°48' W 122°24'0 0.0
2018-Apr-23 18:01N 37°48' W 122°24'0 0.0
2018-Apr-23 17:30N 37°48' W 122°24'0 0.0
2018-Apr-23 17:00N 37°48' W 122°24'0 0.0
2018-Apr-23 16:30N 37°48' W 122°24'0 0.0
2018-Apr-23 16:01N 37°48' W 122°24'0 0.0
2018-Apr-23 15:30N 37°48' W 122°24'0 0.0
2018-Apr-23 15:00N 37°48' W 122°24'0 0.0
2018-Apr-23 14:30N 37°48' W 122°24'0 0.1
2018-Apr-23 14:00N 37°48' W 122°24'3 5.3
2018-Apr-23 13:31N 37°48' W 122°20'1 1.4
2018-Apr-23 13:00N 37°49' W 122°20'1 1.7
2018-Apr-23 12:31N 37°48' W 122°21'2 3.3
2018-Apr-23 12:01N 37°48' W 122°23'1 1.9
2018-Apr-23 11:30N 37°48' W 122°24'0 0.0
2018-Apr-23 11:00N 37°48' W 122°24'0 0.0
2018-Apr-23 10:31N 37°48' W 122°24'0 0.0
2018-Apr-23 10:01N 37°48' W 122°24'0 0.0
2018-Apr-23 09:31N 37°48' W 122°24'0 0.0
2018-Apr-23 09:01N 37°48' W 122°24'0 0.0
2018-Apr-23 08:30N 37°48' W 122°24'0 0.0
2018-Apr-23 08:00N 37°48' W 122°24'0 0.0
2018-Apr-23 07:31N 37°48' W 122°24'0 0.0
2018-Apr-23 07:00N 37°48' W 122°24'0 0.0
2018-Apr-23 06:30N 37°48' W 122°24'0 0.0
2018-Apr-23 06:00N 37°48' W 122°24'0 0.0
2018-Apr-23 05:30N 37°48' W 122°24'0 0.0
2018-Apr-23 05:00N 37°48' W 122°24'0 0.0
2018-Apr-23 04:30N 37°48' W 122°24'0 0.0
2018-Apr-23 04:00N 37°48' W 122°24'0 0.0
2018-Apr-23 03:31N 37°48' W 122°24'0 0.0
2018-Apr-23 03:00N 37°48' W 122°24'3 5.5
2018-Apr-23 02:31N 37°49' W 122°20'0 0.3
2018-Apr-23 02:01N 37°48' W 122°21'0 0.4
2018-Apr-23 01:31N 37°48' W 122°21'2 5.0
2018-Apr-23 01:01N 37°48' W 122°24'0 0.0
2018-Apr-23 00:31N 37°48' W 122°24'0 0.0
2018-Apr-23 00:01N 37°48' W 122°24'0 0.0
2018-Apr-22 23:30N 37°48' W 122°24'0 0.0
2018-Apr-22 23:00N 37°48' W 122°24'0 0.0
2018-Apr-22 22:31N 37°48' W 122°24'0 0.0
2018-Apr-22 22:01N 37°48' W 122°24'0 0.0
2018-Apr-22 21:30N 37°48' W 122°24'0 0.0
2018-Apr-22 21:01N 37°48' W 122°24'0 0.0
2018-Apr-22 20:31N 37°48' W 122°24'0 0.0
2018-Apr-22 20:01N 37°48' W 122°24'0 0.0
2018-Apr-22 19:31N 37°48' W 122°24'0 0.0
2018-Apr-22 19:01N 37°48' W 122°24'0 0.0
2018-Apr-22 18:30N 37°48' W 122°24'0 0.0
2018-Apr-22 18:01N 37°48' W 122°24'0 0.0
2018-Apr-22 17:31N 37°48' W 122°24'0 0.0
2018-Apr-22 17:00N 37°48' W 122°24'0 0.0
2018-Apr-22 16:31N 37°48' W 122°24'0 0.0
2018-Apr-22 16:01N 37°48' W 122°24'0 0.1
2018-Apr-22 15:30N 37°48' W 122°24'2 4.3
2018-Apr-22 15:00N 37°48' W 122°21'0 0.2
2018-Apr-22 14:30N 37°47' W 122°21'0 0.7
2018-Apr-22 14:01N 37°48' W 122°21'0 0.5
2018-Apr-22 13:31N 37°48' W 122°21'1 1.6
2018-Apr-22 13:00N 37°48' W 122°20'1 1.6
2018-Apr-22 12:31N 37°49' W 122°20'3 5.2
2018-Apr-22 12:00N 37°48' W 122°23'1 1.9
2018-Apr-22 11:31N 37°48' W 122°24'0 0.0
2018-Apr-22 11:01N 37°48' W 122°24'0 0.0
2018-Apr-22 10:31N 37°48' W 122°24'0 0.0
2018-Apr-22 10:01N 37°48' W 122°24'0 0.0
2018-Apr-22 09:31N 37°48' W 122°24'0 0.0
2018-Apr-22 09:00N 37°48' W 122°24'0 0.0
2018-Apr-22 08:31N 37°48' W 122°24'0 0.0
2018-Apr-22 08:00N 37°48' W 122°24'0 0.0
2018-Apr-22 07:30N 37°48' W 122°24'0 0.0
2018-Apr-22 06:59N 37°48' W 122°24'0 0.0
2018-Apr-22 06:31N 37°48' W 122°24'0 0.0
2018-Apr-22 06:01N 37°48' W 122°24'0 0.3
2018-Apr-22 05:30N 37°48' W 122°24'5 9.4
2018-Apr-22 05:00N 37°49' W 122°30'1 2.5
2018-Apr-22 04:31N 37°49' W 122°31'5 9.6
2018-Apr-22 04:00N 37°50' W 122°25'611.1
2018-Apr-22 03:31N 37°46' W 122°21'2 4.9
2018-Apr-22 03:00N 37°48' W 122°22'612.1
2018-Apr-22 02:31N 37°54' W 122°25'2 3.8
2018-Apr-22 02:01N 37°56' W 122°25'0 0.6
2018-Apr-22 01:31N 37°55' W 122°25'510.0
2018-Apr-22 01:01N 37°50' W 122°24'2 4.3
2018-Apr-22 00:31N 37°48' W 122°24'0 0.0
2018-Apr-22 00:01N 37°48' W 122°24'0 0.0
2018-Apr-21 23:31N 37°48' W 122°24'0 0.0
2018-Apr-21 23:00N 37°48' W 122°24'0 0.0
2018-Apr-21 22:31N 37°48' W 122°24'0 0.4
2018-Apr-21 22:01N 37°48' W 122°24'0 0.4
2018-Apr-21 21:30N 37°48' W 122°24'0 0.0
2018-Apr-21 21:01N 37°48' W 122°24'0 0.0
2018-Apr-21 20:30N 37°48' W 122°24'0 0.0
2018-Apr-21 20:00N 37°48' W 122°24'0 0.0
2018-Apr-21 19:30N 37°48' W 122°24'0 0.0
2018-Apr-21 19:00N 37°48' W 122°24'0 0.0
2018-Apr-21 18:30N 37°48' W 122°24'0 0.0
2018-Apr-21 18:00N 37°48' W 122°24'0 0.0
2018-Apr-21 17:30N 37°48' W 122°24'0 0.0
2018-Apr-21 17:00N 37°48' W 122°24'0 0.0
2018-Apr-21 16:30N 37°48' W 122°24'0 0.0
2018-Apr-21 16:00N 37°48' W 122°24'0 0.0
2018-Apr-21 15:30N 37°48' W 122°24'0 0.0
2018-Apr-21 15:00N 37°48' W 122°24'0 0.0
2018-Apr-21 14:30N 37°48' W 122°24'0 0.0
2018-Apr-21 14:00N 37°48' W 122°24'0 0.0
2018-Apr-21 13:30N 37°48' W 122°24'0 0.0
2018-Apr-21 13:01N 37°48' W 122°24'0 0.0
2018-Apr-21 12:31N 37°48' W 122°24'0 0.0
2018-Apr-21 12:00N 37°48' W 122°24'0 0.0
2018-Apr-21 11:31N 37°48' W 122°24'0 0.0
2018-Apr-21 11:01N 37°48' W 122°24'0 0.0
2018-Apr-21 10:30N 37°48' W 122°24'0 0.0
2018-Apr-21 10:00N 37°48' W 122°24'0 0.0
2018-Apr-21 09:30N 37°48' W 122°24'0 0.0
2018-Apr-21 09:00N 37°48' W 122°24'0 0.0
2018-Apr-21 08:31N 37°48' W 122°24'0 0.0
2018-Apr-21 08:00N 37°48' W 122°24'0 0.0
2018-Apr-21 07:30N 37°48' W 122°24'0 0.0
2018-Apr-21 07:00N 37°48' W 122°24'0 0.0
2018-Apr-21 06:31N 37°48' W 122°24'0 0.0
2018-Apr-21 06:01N 37°48' W 122°24'0 0.0
2018-Apr-21 05:30N 37°48' W 122°24'0 0.0
2018-Apr-21 05:01N 37°48' W 122°24'0 0.0
2018-Apr-21 04:30N 37°48' W 122°24'0 0.0
2018-Apr-21 04:00N 37°48' W 122°24'0 0.0
2018-Apr-21 03:30N 37°48' W 122°24'0 0.0
2018-Apr-21 03:00N 37°48' W 122°24'0 0.0
2018-Apr-21 02:30N 37°48' W 122°24'0 0.0
2018-Apr-21 02:00N 37°48' W 122°24'0 0.0
2018-Apr-21 01:30N 37°48' W 122°24'0 0.0
2018-Apr-21 01:01N 37°48' W 122°24'0 0.0
2018-Apr-21 00:30N 37°48' W 122°24'0 0.0
2018-Apr-21 00:00N 37°48' W 122°24'0 0.0
2018-Apr-20 23:30N 37°48' W 122°24'0 0.0
2018-Apr-20 23:00N 37°48' W 122°24'0 0.0
2018-Apr-20 22:30N 37°48' W 122°24'0 0.0
2018-Apr-20 22:00N 37°48' W 122°24'0 0.0
2018-Apr-20 21:30N 37°48' W 122°24'0 0.0
2018-Apr-20 21:00N 37°48' W 122°24'0 0.0
2018-Apr-20 20:31N 37°48' W 122°24'0 0.0
2018-Apr-20 20:00N 37°48' W 122°24'0 0.0
2018-Apr-20 19:30N 37°48' W 122°24'0 0.0
2018-Apr-20 19:00N 37°48' W 122°24'0 0.0
2018-Apr-20 18:31N 37°48' W 122°24'0 0.0
2018-Apr-20 18:00N 37°48' W 122°24'0 0.0
2018-Apr-20 17:30N 37°48' W 122°24'0 0.0
2018-Apr-20 17:00N 37°48' W 122°24'0 0.0
2018-Apr-20 16:30N 37°48' W 122°24'0 0.0
2018-Apr-20 16:00N 37°48' W 122°24'0 0.0
2018-Apr-20 15:30N 37°48' W 122°24'0 0.0
2018-Apr-20 15:00N 37°48' W 122°24'0 0.0
2018-Apr-20 14:31N 37°48' W 122°24'0 0.0
2018-Apr-20 14:00N 37°48' W 122°24'0 0.0
2018-Apr-20 13:30N 37°48' W 122°24'0 0.0
2018-Apr-20 13:00N 37°48' W 122°24'0 0.0
2018-Apr-20 12:30N 37°48' W 122°24'0 0.0
2018-Apr-20 12:01N 37°48' W 122°24'0 0.0
2018-Apr-20 11:31N 37°48' W 122°24'0 0.0
2018-Apr-20 11:00N 37°48' W 122°24'0 0.0
2018-Apr-20 10:30N 37°48' W 122°24'0 0.0
2018-Apr-20 10:00N 37°48' W 122°24'0 0.0
2018-Apr-20 09:30N 37°48' W 122°24'0 0.0
2018-Apr-20 09:00N 37°48' W 122°24'0 0.0
2018-Apr-20 08:30N 37°48' W 122°24'0 0.0
2018-Apr-20 08:00N 37°48' W 122°24'0 0.0
2018-Apr-20 07:31N 37°48' W 122°24'0 0.0
2018-Apr-20 07:00N 37°48' W 122°24'0 0.0
2018-Apr-20 06:30N 37°48' W 122°24'0 0.0
2018-Apr-20 06:00N 37°48' W 122°24'0 0.0
2018-Apr-20 05:30N 37°48' W 122°24'0 0.0
2018-Apr-20 05:01N 37°48' W 122°24'0 0.0
2018-Apr-20 04:30N 37°48' W 122°24'0 0.0
2018-Apr-20 04:01N 37°48' W 122°24'0 0.0
2018-Apr-20 03:30N 37°48' W 122°24'0 0.0
2018-Apr-20 03:00N 37°48' W 122°24'0 0.0
2018-Apr-20 02:30N 37°48' W 122°24'0 0.0
2018-Apr-20 02:00N 37°48' W 122°24'0 0.0
2018-Apr-20 01:31N 37°48' W 122°24'0 0.0
2018-Apr-20 01:00N 37°48' W 122°24'0 0.0
2018-Apr-20 00:30N 37°48' W 122°24'0 0.0
2018-Apr-20 00:01N 37°48' W 122°24'0 0.0
2018-Apr-19 23:30N 37°48' W 122°24'0 0.0
2018-Apr-19 23:01N 37°48' W 122°24'0 0.0
2018-Apr-19 22:30N 37°48' W 122°24'0 0.0
2018-Apr-19 22:01N 37°48' W 122°24'0 0.0
2018-Apr-19 21:30N 37°48' W 122°24'0 0.0
2018-Apr-19 21:00N 37°48' W 122°24'0 0.0
2018-Apr-19 20:30N 37°48' W 122°24'0 0.0
2018-Apr-19 20:00N 37°48' W 122°24'0 0.0
2018-Apr-19 19:30N 37°48' W 122°24'0 0.0
2018-Apr-19 19:00N 37°48' W 122°24'0 0.0
2018-Apr-19 18:30N 37°48' W 122°24'2 3.8
2018-Apr-19 18:00N 37°50' W 122°24'510.7
2018-Apr-19 17:31N 37°55' W 122°25'1 1.1
2018-Apr-19 17:01N 37°55' W 122°25'0 0.2
2018-Apr-19 16:30N 37°56' W 122°25'3 6.4
2018-Apr-19 16:00N 37°52' W 122°25'4 8.3
2018-Apr-19 15:30N 37°48' W 122°24'0 0.0
2018-Apr-19 15:00N 37°48' W 122°24'0 0.0
2018-Apr-19 14:30N 37°48' W 122°24'0 0.0
2018-Apr-19 14:00N 37°48' W 122°24'0 0.0
2018-Apr-19 13:30N 37°48' W 122°24'0 0.0
2018-Apr-19 13:00N 37°48' W 122°24'0 0.0
2018-Apr-19 12:31N 37°48' W 122°24'0 0.0
2018-Apr-19 12:01N 37°48' W 122°24'0 0.0
2018-Apr-19 11:30N 37°48' W 122°24'0 0.0
2018-Apr-19 11:00N 37°48' W 122°24'0 0.0
2018-Apr-19 10:30N 37°48' W 122°24'0 0.0
2018-Apr-19 10:00N 37°48' W 122°24'0 0.0
2018-Apr-19 09:30N 37°48' W 122°24'0 0.0
2018-Apr-19 09:00N 37°48' W 122°24'0 0.0
2018-Apr-19 08:30N 37°48' W 122°24'0 0.0
2018-Apr-19 08:00N 37°48' W 122°24'0 0.0
2018-Apr-19 07:31N 37°48' W 122°24'0 0.0
2018-Apr-19 07:00N 37°48' W 122°24'0 0.0
2018-Apr-19 06:30N 37°48' W 122°24'0 0.0
2018-Apr-19 06:00N 37°48' W 122°24'0 0.0
2018-Apr-19 05:30N 37°48' W 122°24'0 0.0
2018-Apr-19 05:00N 37°48' W 122°24'0 0.0
2018-Apr-19 04:30N 37°48' W 122°24'0 0.0
2018-Apr-19 04:00N 37°48' W 122°24'0 0.0
2018-Apr-19 03:30N 37°48' W 122°24'0 0.0
2018-Apr-19 03:00N 37°48' W 122°24'0 0.0
2018-Apr-19 02:29N 37°48' W 122°24'0 0.0
2018-Apr-19 02:00N 37°48' W 122°24'0 0.0
2018-Apr-19 01:30N 37°48' W 122°24'2 4.6
2018-Apr-19 01:01N 37°48' W 122°21'1 2.2
2018-Apr-19 00:30N 37°49' W 122°20'2 3.1
2018-Apr-19 00:00N 37°48' W 122°22'2 3.0
2018-Apr-18 23:30N 37°49' W 122°23'1 1.5
2018-Apr-18 23:00N 37°49' W 122°24'0 1.0
2018-Apr-18 22:30N 37°49' W 122°24'0 0.0
2018-Apr-18 22:00N 37°49' W 122°24'0 0.0
2018-Apr-18 21:31N 37°49' W 122°24'2 3.7
2018-Apr-18 21:01N 37°49' W 122°27'2 4.7
2018-Apr-18 20:30N 37°48' W 122°24'0 0.0
2018-Apr-18 20:00N 37°48' W 122°24'0 0.0
2018-Apr-18 19:30N 37°48' W 122°24'0 0.0
2018-Apr-18 19:01N 37°48' W 122°24'0 0.0
2018-Apr-18 18:30N 37°48' W 122°24'0 0.0
2018-Apr-18 18:00N 37°48' W 122°24'0 0.0
2018-Apr-18 17:30N 37°48' W 122°24'0 0.0
2018-Apr-18 17:00N 37°48' W 122°24'3 5.3
2018-Apr-18 16:30N 37°48' W 122°21'1 2.4
2018-Apr-18 16:01N 37°48' W 122°19'1 1.8
2018-Apr-18 15:30N 37°47' W 122°18'1 1.1
2018-Apr-18 15:00N 37°48' W 122°17'2 3.2
2018-Apr-18 14:31N 37°48' W 122°19'2 4.8
2018-Apr-18 14:00N 37°48' W 122°22'1 2.6
2018-Apr-18 13:30N 37°48' W 122°24'0 0.0
2018-Apr-18 13:00N 37°48' W 122°24'0 0.0
2018-Apr-18 12:30N 37°48' W 122°24'0 0.0
2018-Apr-18 12:00N 37°48' W 122°24'0 0.0
2018-Apr-18 11:29N 37°48' W 122°24'0 0.0
2018-Apr-18 11:00N 37°48' W 122°24'0 0.0
2018-Apr-18 10:30N 37°48' W 122°24'0 0.0
2018-Apr-18 10:00N 37°48' W 122°24'0 0.0
2018-Apr-18 09:30N 37°48' W 122°24'0 0.0
2018-Apr-18 09:00N 37°48' W 122°24'0 0.0
2018-Apr-18 08:30N 37°48' W 122°24'0 0.0
2018-Apr-18 08:00N 37°48' W 122°24'0 0.0
2018-Apr-18 07:30N 37°48' W 122°24'0 0.0
2018-Apr-18 07:00N 37°48' W 122°24'0 0.0
2018-Apr-18 06:30N 37°48' W 122°24'0 0.0
2018-Apr-18 06:00N 37°48' W 122°24'0 0.0
2018-Apr-18 05:30N 37°48' W 122°24'0 0.0
2018-Apr-18 05:00N 37°48' W 122°24'0 0.0
2018-Apr-18 04:30N 37°48' W 122°24'0 0.0
2018-Apr-18 04:00N 37°48' W 122°24'0 0.0
2018-Apr-18 03:30N 37°48' W 122°24'0 0.0
2018-Apr-18 03:00N 37°48' W 122°24'0 0.0
2018-Apr-18 02:30N 37°48' W 122°24'0 0.0
2018-Apr-18 02:01N 37°48' W 122°24'0 0.0
2018-Apr-18 01:30N 37°48' W 122°24'0 0.0
2018-Apr-18 01:00N 37°48' W 122°24'0 0.0
2018-Apr-18 00:30N 37°48' W 122°24'0 0.0
2018-Apr-18 00:00N 37°48' W 122°24'0 0.0
2018-Apr-17 23:30N 37°48' W 122°24'1 2.8
2018-Apr-17 23:01N 37°50' W 122°24'5 9.4
2018-Apr-17 22:30N 37°54' W 122°25'1 2.4
2018-Apr-17 22:00N 37°55' W 122°25'1 2.5
2018-Apr-17 21:31N 37°54' W 122°25'4 7.2
2018-Apr-17 21:00N 37°51' W 122°24'3 5.0
2018-Apr-17 20:30N 37°48' W 122°24'0 0.0
2018-Apr-17 20:00N 37°48' W 122°24'0 0.0
2018-Apr-17 19:31N 37°48' W 122°24'0 0.0
2018-Apr-17 19:00N 37°48' W 122°24'0 0.0
2018-Apr-17 18:30N 37°48' W 122°24'0 0.0
2018-Apr-17 18:00N 37°48' W 122°24'0 0.0
2018-Apr-17 17:30N 37°48' W 122°24'0 0.0
2018-Apr-17 17:00N 37°48' W 122°24'0 0.0
2018-Apr-17 16:31N 37°48' W 122°24'0 0.0
2018-Apr-17 16:00N 37°48' W 122°24'0 0.0
2018-Apr-17 15:30N 37°48' W 122°24'0 0.0
2018-Apr-17 15:00N 37°48' W 122°24'0 0.0
2018-Apr-17 14:30N 37°48' W 122°24'0 0.0
2018-Apr-17 14:00N 37°48' W 122°24'0 0.0
2018-Apr-17 13:30N 37°48' W 122°24'0 0.0
2018-Apr-17 13:00N 37°48' W 122°24'0 0.0
2018-Apr-17 12:30N 37°48' W 122°24'4 7.6
2018-Apr-17 12:00N 37°49' W 122°29'2 3.7
2018-Apr-17 11:31N 37°49' W 122°31'4 9.0
2018-Apr-17 11:01N 37°51' W 122°26'4 8.5
2018-Apr-17 10:30N 37°55' W 122°25'1 1.3
2018-Apr-17 10:00N 37°55' W 122°25'0 0.0
2018-Apr-17 09:30N 37°55' W 122°25'1 1.8
2018-Apr-17 09:00N 37°56' W 122°26'4 7.1
2018-Apr-17 08:30N 37°60' W 122°25'4 8.2
2018-Apr-17 08:00N 38°02' W 122°21'4 8.5
2018-Apr-17 07:30N 38°04' W 122°16'6 8.0
2018-Apr-17 06:48N 38°02' W 122°09'1 1.2
2018-Apr-17 06:08N 38°02' W 122°08'0 0.5
2018-Apr-17 05:55N 38°02' W 122°08'3 7.4
2018-Apr-17 05:30N 38°03' W 122°12'4 8.9
2018-Apr-17 05:00N 38°03' W 122°17'4 8.4
2018-Apr-17 04:30N 38°02' W 122°22'5 9.8
2018-Apr-17 04:00N 37°58' W 122°26'510.2
2018-Apr-17 03:30N 37°53' W 122°25'4 8.9
2018-Apr-17 03:01N 37°48' W 122°24'0 0.0
2018-Apr-17 02:30N 37°48' W 122°24'0 0.0
2018-Apr-17 02:00N 37°48' W 122°24'0 0.0
2018-Apr-17 01:30N 37°48' W 122°24'0 0.0
2018-Apr-17 01:00N 37°48' W 122°24'0 0.0
2018-Apr-17 00:30N 37°48' W 122°24'0 0.0
2018-Apr-17 00:00N 37°48' W 122°24'0 0.0
2018-Apr-16 23:30N 37°48' W 122°24'0 0.0
2018-Apr-16 23:00N 37°48' W 122°24'0 0.0
2018-Apr-16 22:30N 37°48' W 122°24'0 0.0
2018-Apr-16 22:00N 37°48' W 122°24'0 0.0
2018-Apr-16 21:30N 37°48' W 122°24'0 0.0
2018-Apr-16 21:00N 37°48' W 122°24'2 4.7
2018-Apr-16 20:31N 37°51' W 122°24'5 9.8
2018-Apr-16 20:00N 37°55' W 122°25'3 5.6
2018-Apr-16 19:30N 37°55' W 122°22'0 0.2
2018-Apr-16 19:00N 37°55' W 122°22'0 0.4
2018-Apr-16 18:30N 37°55' W 122°22'0 0.0
2018-Apr-16 18:00N 37°55' W 122°22'0 0.0
2018-Apr-16 17:30N 37°55' W 122°22'0 0.0
2018-Apr-16 17:00N 37°55' W 122°22'0 0.0
2018-Apr-16 16:30N 37°55' W 122°22'0 0.0
2018-Apr-16 16:00N 37°55' W 122°22'0 0.0
2018-Apr-16 15:30N 37°55' W 122°22'0 0.0
2018-Apr-16 15:00N 37°55' W 122°22'0 0.0
2018-Apr-16 14:30N 37°55' W 122°22'0 0.5
2018-Apr-16 14:01N 37°55' W 122°22'0 0.2
2018-Apr-16 13:30N 37°55' W 122°22'1 2.5
2018-Apr-16 13:01N 37°54' W 122°23'2 3.6
2018-Apr-16 12:30N 37°54' W 122°25'2 3.2
2018-Apr-16 12:00N 37°55' W 122°25'0 0.0
2018-Apr-16 11:30N 37°55' W 122°25'0 0.0
2018-Apr-16 11:01N 37°55' W 122°25'0 0.0
2018-Apr-16 10:30N 37°55' W 122°25'0 0.0
2018-Apr-16 10:00N 37°55' W 122°25'0 0.0
2018-Apr-16 09:30N 37°55' W 122°25'0 0.0
2018-Apr-16 09:00N 37°55' W 122°25'4 7.8
2018-Apr-16 08:30N 37°59' W 122°25'5 8.4
2018-Apr-16 07:54N 38°02' W 122°20'4 8.4
2018-Apr-16 07:29N 38°04' W 122°16'4 7.8
2018-Apr-16 07:00N 38°03' W 122°11'3 2.5
2018-Apr-16 05:52N 38°02' W 122°08'1 0.1
2018-Apr-16 00:35N 38°02' W 122°09'0 0.2
2018-Apr-15 22:37N 38°02' W 122°08'1 7.6
2018-Apr-15 22:30N 38°02' W 122°09'0 0.1
2018-Apr-15 19:53N 38°02' W 122°09'1 0.2
2018-Apr-15 16:40N 38°02' W 122°08'2 0.6
2018-Apr-15 13:51N 38°03' W 122°10'2 6.6
2018-Apr-15 13:30N 38°04' W 122°13'3 6.4
2018-Apr-15 13:00N 38°03' W 122°17'3 7.0
2018-Apr-15 12:30N 38°02' W 122°21'4 7.4
2018-Apr-15 12:00N 37°60' W 122°25'4 7.0
2018-Apr-15 11:30N 37°56' W 122°26'4 7.9
2018-Apr-15 11:00N 37°52' W 122°24'5 9.9
2018-Apr-15 10:30N 37°49' W 122°20'0 0.4
2018-Apr-15 10:00N 37°48' W 122°20'0 0.1
2018-Apr-15 09:30N 37°48' W 122°21'3 5.4
2018-Apr-15 09:01N 37°48' W 122°24'0 0.0
2018-Apr-15 08:30N 37°48' W 122°24'0 0.0
2018-Apr-15 08:00N 37°48' W 122°24'0 0.0
2018-Apr-15 07:31N 37°48' W 122°24'0 0.0
2018-Apr-15 07:00N 37°48' W 122°24'0 0.0
2018-Apr-15 06:30N 37°48' W 122°24'0 0.0
2018-Apr-15 06:01N 37°48' W 122°24'0 0.0
2018-Apr-15 05:30N 37°48' W 122°24'0 0.3
2018-Apr-15 05:00N 37°48' W 122°24'510.3
2018-Apr-15 04:31N 37°53' W 122°25'2 4.2
2018-Apr-15 04:00N 37°55' W 122°25'0 0.8
2018-Apr-15 03:30N 37°55' W 122°25'3 5.6
2018-Apr-15 03:00N 37°53' W 122°25'4 8.7
2018-Apr-15 02:30N 37°48' W 122°24'0 0.4
2018-Apr-15 02:00N 37°48' W 122°24'0 0.0
2018-Apr-15 01:30N 37°48' W 122°24'0 0.0
2018-Apr-15 01:00N 37°48' W 122°24'0 0.0
2018-Apr-15 00:30N 37°48' W 122°24'2 3.9
2018-Apr-15 00:00N 37°48' W 122°21'1 1.7
2018-Apr-14 23:30N 37°48' W 122°20'1 1.5
2018-Apr-14 23:00N 37°49' W 122°20'2 4.8
2018-Apr-14 22:30N 37°48' W 122°23'1 1.8
2018-Apr-14 22:00N 37°49' W 122°23'2 4.8
2018-Apr-14 21:30N 37°51' W 122°24'713.4
2018-Apr-14 20:59N 37°58' W 122°26'612.2
2018-Apr-14 20:30N 38°02' W 122°21'611.4
2018-Apr-14 20:00N 38°04' W 122°14'4 2.5
2018-Apr-14 18:27N 38°02' W 122°09'1 0.8
2018-Apr-14 17:29N 38°02' W 122°08'3 6.5
2018-Apr-14 17:00N 38°03' W 122°12'4 8.8
2018-Apr-14 16:30N 38°03' W 122°17'3 6.2
2018-Apr-14 16:01N 38°02' W 122°21'5 9.2
2018-Apr-14 15:30N 37°59' W 122°25'5 9.4
2018-Apr-14 15:00N 37°55' W 122°27'4 9.1
2018-Apr-14 14:31N 37°51' W 122°24'4 7.0
2018-Apr-14 14:01N 37°49' W 122°28'2 3.4
2018-Apr-14 13:30N 37°48' W 122°30'0 0.4
2018-Apr-14 13:01N 37°48' W 122°30'3 5.4
2018-Apr-14 12:30N 37°49' W 122°27'3 5.3
2018-Apr-14 12:00N 37°48' W 122°24'0 0.0
2018-Apr-14 11:31N 37°48' W 122°24'0 0.0
2018-Apr-14 11:00N 37°48' W 122°24'0 0.0
2018-Apr-14 10:31N 37°48' W 122°24'0 0.0
2018-Apr-14 10:00N 37°48' W 122°24'0 0.0
2018-Apr-14 09:31N 37°48' W 122°24'0 0.0
2018-Apr-14 09:01N 37°48' W 122°24'0 0.0
2018-Apr-14 08:31N 37°48' W 122°24'0 0.0
2018-Apr-14 08:01N 37°48' W 122°24'0 0.0
2018-Apr-14 07:30N 37°48' W 122°24'0 0.0
2018-Apr-14 07:00N 37°48' W 122°24'  
Track history (hours):
 
Tides and Currents Weather Stations Pressure Air Temp Water Temp Dewpoint Dewpoint Depression Visibility Wind Speed Wind Dir Waves Ship Positions

Goliah

Owner: Crowley Marine Services, Seattle, WA. More information available from US FCC via Universal Licensing System and Coast Guard Vessel Documentation Center.

Last reported at 2018-Apr-24 06:52 UTC. Time now 2018-Apr-24 07:00 UTC.
Position N 38°02' W 122°09'.

Length 33 m; draft 4.8 m.

Type: Tug. MMSI: 366898250.

Date/timePositionNaut miles runAvg speedWind from/ knotsBaromVisibWave heightAir tempDewpointWater temp
2018-Apr-24 06:52N 38°02' W 122°09'1 2.5
2018-Apr-24 06:18N 38°02' W 122°07'0 0.0
2018-Apr-24 05:41N 38°02' W 122°07'0 0.2
2018-Apr-24 05:28N 38°02' W 122°07'1 2.0
2018-Apr-24 05:00N 38°02' W 122°09'3 6.0
2018-Apr-24 04:30N 38°03' W 122°12'4 8.3
2018-Apr-24 04:00N 38°04' W 122°17'4 7.4
2018-Apr-24 03:30N 38°02' W 122°21'4 8.0
2018-Apr-24 03:00N 37°60' W 122°25'5 9.6
2018-Apr-24 02:30N 37°55' W 122°27'4 8.8
2018-Apr-24 02:01N 37°51' W 122°25'510.6
2018-Apr-24 01:31N 37°48' W 122°30'0 0.9
2018-Apr-24 01:01N 37°48' W 122°30'2 3.9
2018-Apr-24 00:31N 37°49' W 122°28'4 7.2
2018-Apr-24 00:01N 37°48' W 122°24'0 0.1
2018-Apr-23 23:30N 37°48' W 122°24'0 0.0
2018-Apr-23 23:01N 37°48' W 122°24'0 0.0
2018-Apr-23 22:31N 37°48' W 122°24'0 0.0
2018-Apr-23 22:00N 37°48' W 122°24'0 0.0
2018-Apr-23 21:31N 37°48' W 122°24'0 0.0
2018-Apr-23 21:01N 37°48' W 122°24'0 0.0
2018-Apr-23 20:30N 37°48' W 122°24'0 0.0
2018-Apr-23 20:01N 37°48' W 122°24'0 0.0
2018-Apr-23 19:30N 37°48' W 122°24'0 0.0
2018-Apr-23 19:00N 37°48' W 122°24'0 0.0
2018-Apr-23 18:31N 37°48' W 122°24'0 0.0
2018-Apr-23 18:01N 37°48' W 122°24'0 0.0
2018-Apr-23 17:30N 37°48' W 122°24'0 0.0
2018-Apr-23 17:00N 37°48' W 122°24'0 0.0
2018-Apr-23 16:30N 37°48' W 122°24'0 0.0
2018-Apr-23 16:01N 37°48' W 122°24'0 0.0
2018-Apr-23 15:30N 37°48' W 122°24'0 0.0
2018-Apr-23 15:00N 37°48' W 122°24'0 0.0
2018-Apr-23 14:30N 37°48' W 122°24'0 0.1
2018-Apr-23 14:00N 37°48' W 122°24'3 5.3
2018-Apr-23 13:31N 37°48' W 122°20'1 1.4
2018-Apr-23 13:00N 37°49' W 122°20'1 1.7
2018-Apr-23 12:31N 37°48' W 122°21'2 3.3
2018-Apr-23 12:01N 37°48' W 122°23'1 1.9
2018-Apr-23 11:30N 37°48' W 122°24'0 0.0
2018-Apr-23 11:00N 37°48' W 122°24'0 0.0
2018-Apr-23 10:31N 37°48' W 122°24'0 0.0
2018-Apr-23 10:01N 37°48' W 122°24'0 0.0
2018-Apr-23 09:31N 37°48' W 122°24'0 0.0
2018-Apr-23 09:01N 37°48' W 122°24'0 0.0
2018-Apr-23 08:30N 37°48' W 122°24'0 0.0
2018-Apr-23 08:00N 37°48' W 122°24'0 0.0
2018-Apr-23 07:31N 37°48' W 122°24'0 0.0
2018-Apr-23 07:00N 37°48' W 122°24'0 0.0
2018-Apr-23 06:30N 37°48' W 122°24'0 0.0
2018-Apr-23 06:00N 37°48' W 122°24'0 0.0
2018-Apr-23 05:30N 37°48' W 122°24'0 0.0
2018-Apr-23 05:00N 37°48' W 122°24'0 0.0
2018-Apr-23 04:30N 37°48' W 122°24'0 0.0
2018-Apr-23 04:00N 37°48' W 122°24'0 0.0
2018-Apr-23 03:31N 37°48' W 122°24'0 0.0
2018-Apr-23 03:00N 37°48' W 122°24'3 5.5
2018-Apr-23 02:31N 37°49' W 122°20'0 0.3
2018-Apr-23 02:01N 37°48' W 122°21'0 0.4
2018-Apr-23 01:31N 37°48' W 122°21'2 5.0
2018-Apr-23 01:01N 37°48' W 122°24'0 0.0
2018-Apr-23 00:31N 37°48' W 122°24'0 0.0
2018-Apr-23 00:01N 37°48' W 122°24'0 0.0
2018-Apr-22 23:30N 37°48' W 122°24'0 0.0
2018-Apr-22 23:00N 37°48' W 122°24'0 0.0
2018-Apr-22 22:31N 37°48' W 122°24'0 0.0
2018-Apr-22 22:01N 37°48' W 122°24'0 0.0
2018-Apr-22 21:30N 37°48' W 122°24'0 0.0
2018-Apr-22 21:01N 37°48' W 122°24'0 0.0
2018-Apr-22 20:31N 37°48' W 122°24'0 0.0
2018-Apr-22 20:01N 37°48' W 122°24'0 0.0
2018-Apr-22 19:31N 37°48' W 122°24'0 0.0
2018-Apr-22 19:01N 37°48' W 122°24'0 0.0
2018-Apr-22 18:30N 37°48' W 122°24'0 0.0
2018-Apr-22 18:01N 37°48' W 122°24'0 0.0
2018-Apr-22 17:31N 37°48' W 122°24'0 0.0
2018-Apr-22 17:00N 37°48' W 122°24'0 0.0
2018-Apr-22 16:31N 37°48' W 122°24'0 0.0
2018-Apr-22 16:01N 37°48' W 122°24'0 0.1
2018-Apr-22 15:30N 37°48' W 122°24'2 4.3
2018-Apr-22 15:00N 37°48' W 122°21'0 0.2
2018-Apr-22 14:30N 37°47' W 122°21'0 0.7
2018-Apr-22 14:01N 37°48' W 122°21'0 0.5
2018-Apr-22 13:31N 37°48' W 122°21'1 1.6
2018-Apr-22 13:00N 37°48' W 122°20'1 1.6
2018-Apr-22 12:31N 37°49' W 122°20'3 5.2
2018-Apr-22 12:00N 37°48' W 122°23'1 1.9
2018-Apr-22 11:31N 37°48' W 122°24'0 0.0
2018-Apr-22 11:01N 37°48' W 122°24'0 0.0
2018-Apr-22 10:31N 37°48' W 122°24'0 0.0
2018-Apr-22 10:01N 37°48' W 122°24'0 0.0
2018-Apr-22 09:31N 37°48' W 122°24'0 0.0
2018-Apr-22 09:00N 37°48' W 122°24'0 0.0
2018-Apr-22 08:31N 37°48' W 122°24'0 0.0
2018-Apr-22 08:00N 37°48' W 122°24'0 0.0
2018-Apr-22 07:30N 37°48' W 122°24'0 0.0
2018-Apr-22 06:59N 37°48' W 122°24'0 0.0
2018-Apr-22 06:31N 37°48' W 122°24'0 0.0
2018-Apr-22 06:01N 37°48' W 122°24'0 0.3
2018-Apr-22 05:30N 37°48' W 122°24'5 9.4
2018-Apr-22 05:00N 37°49' W 122°30'1 2.5
2018-Apr-22 04:31N 37°49' W 122°31'5 9.6
2018-Apr-22 04:00N 37°50' W 122°25'611.1
2018-Apr-22 03:31N 37°46' W 122°21'2 4.9
2018-Apr-22 03:00N 37°48' W 122°22'612.1
2018-Apr-22 02:31N 37°54' W 122°25'2 3.8
2018-Apr-22 02:01N 37°56' W 122°25'0 0.6
2018-Apr-22 01:31N 37°55' W 122°25'510.0
2018-Apr-22 01:01N 37°50' W 122°24'2 4.3
2018-Apr-22 00:31N 37°48' W 122°24'0 0.0
2018-Apr-22 00:01N 37°48' W 122°24'0 0.0
2018-Apr-21 23:31N 37°48' W 122°24'0 0.0
2018-Apr-21 23:00N 37°48' W 122°24'0 0.0
2018-Apr-21 22:31N 37°48' W 122°24'0 0.4
2018-Apr-21 22:01N 37°48' W 122°24'0 0.4
2018-Apr-21 21:30N 37°48' W 122°24'0 0.0
2018-Apr-21 21:01N 37°48' W 122°24'0 0.0
2018-Apr-21 20:30N 37°48' W 122°24'0 0.0
2018-Apr-21 20:00N 37°48' W 122°24'0 0.0
2018-Apr-21 19:30N 37°48' W 122°24'0 0.0
2018-Apr-21 19:00N 37°48' W 122°24'0 0.0
2018-Apr-21 18:30N 37°48' W 122°24'0 0.0
2018-Apr-21 18:00N 37°48' W 122°24'0 0.0
2018-Apr-21 17:30N 37°48' W 122°24'0 0.0
2018-Apr-21 17:00N 37°48' W 122°24'0 0.0
2018-Apr-21 16:30N 37°48' W 122°24'0 0.0
2018-Apr-21 16:00N 37°48' W 122°24'0 0.0
2018-Apr-21 15:30N 37°48' W 122°24'0 0.0
2018-Apr-21 15:00N 37°48' W 122°24'0 0.0
2018-Apr-21 14:30N 37°48' W 122°24'0 0.0
2018-Apr-21 14:00N 37°48' W 122°24'0 0.0
2018-Apr-21 13:30N 37°48' W 122°24'0 0.0
2018-Apr-21 13:01N 37°48' W 122°24'0 0.0
2018-Apr-21 12:31N 37°48' W 122°24'0 0.0
2018-Apr-21 12:00N 37°48' W 122°24'0 0.0
2018-Apr-21 11:31N 37°48' W 122°24'0 0.0
2018-Apr-21 11:01N 37°48' W 122°24'0 0.0
2018-Apr-21 10:30N 37°48' W 122°24'0 0.0
2018-Apr-21 10:00N 37°48' W 122°24'0 0.0
2018-Apr-21 09:30N 37°48' W 122°24'0 0.0
2018-Apr-21 09:00N 37°48' W 122°24'0 0.0
2018-Apr-21 08:31N 37°48' W 122°24'0 0.0
2018-Apr-21 08:00N 37°48' W 122°24'0 0.0
2018-Apr-21 07:30N 37°48' W 122°24'0 0.0
2018-Apr-21 07:00N 37°48' W 122°24'0 0.0
2018-Apr-21 06:31N 37°48' W 122°24'0 0.0
2018-Apr-21 06:01N 37°48' W 122°24'0 0.0
2018-Apr-21 05:30N 37°48' W 122°24'0 0.0
2018-Apr-21 05:01N 37°48' W 122°24'0 0.0
2018-Apr-21 04:30N 37°48' W 122°24'0 0.0
2018-Apr-21 04:00N 37°48' W 122°24'0 0.0
2018-Apr-21 03:30N 37°48' W 122°24'0 0.0
2018-Apr-21 03:00N 37°48' W 122°24'0 0.0
2018-Apr-21 02:30N 37°48' W 122°24'0 0.0
2018-Apr-21 02:00N 37°48' W 122°24'0 0.0
2018-Apr-21 01:30N 37°48' W 122°24'0 0.0
2018-Apr-21 01:01N 37°48' W 122°24'0 0.0
2018-Apr-21 00:30N 37°48' W 122°24'0 0.0
2018-Apr-21 00:00N 37°48' W 122°24'0 0.0
2018-Apr-20 23:30N 37°48' W 122°24'0 0.0
2018-Apr-20 23:00N 37°48' W 122°24'0 0.0
2018-Apr-20 22:30N 37°48' W 122°24'0 0.0
2018-Apr-20 22:00N 37°48' W 122°24'0 0.0
2018-Apr-20 21:30N 37°48' W 122°24'0 0.0
2018-Apr-20 21:00N 37°48' W 122°24'0 0.0
2018-Apr-20 20:31N 37°48' W 122°24'0 0.0
2018-Apr-20 20:00N 37°48' W 122°24'0 0.0
2018-Apr-20 19:30N 37°48' W 122°24'0 0.0
2018-Apr-20 19:00N 37°48' W 122°24'0 0.0
2018-Apr-20 18:31N 37°48' W 122°24'0 0.0
2018-Apr-20 18:00N 37°48' W 122°24'0 0.0
2018-Apr-20 17:30N 37°48' W 122°24'0 0.0
2018-Apr-20 17:00N 37°48' W 122°24'0 0.0
2018-Apr-20 16:30N 37°48' W 122°24'0 0.0
2018-Apr-20 16:00N 37°48' W 122°24'0 0.0
2018-Apr-20 15:30N 37°48' W 122°24'0 0.0
2018-Apr-20 15:00N 37°48' W 122°24'0 0.0
2018-Apr-20 14:31N 37°48' W 122°24'0 0.0
2018-Apr-20 14:00N 37°48' W 122°24'0 0.0
2018-Apr-20 13:30N 37°48' W 122°24'0 0.0
2018-Apr-20 13:00N 37°48' W 122°24'0 0.0
2018-Apr-20 12:30N 37°48' W 122°24'0 0.0
2018-Apr-20 12:01N 37°48' W 122°24'0 0.0
2018-Apr-20 11:31N 37°48' W 122°24'0 0.0
2018-Apr-20 11:00N 37°48' W 122°24'0 0.0
2018-Apr-20 10:30N 37°48' W 122°24'0 0.0
2018-Apr-20 10:00N 37°48' W 122°24'0 0.0
2018-Apr-20 09:30N 37°48' W 122°24'0 0.0
2018-Apr-20 09:00N 37°48' W 122°24'0 0.0
2018-Apr-20 08:30N 37°48' W 122°24'0 0.0
2018-Apr-20 08:00N 37°48' W 122°24'0 0.0
2018-Apr-20 07:31N 37°48' W 122°24'0 0.0
2018-Apr-20 07:00N 37°48' W 122°24'0 0.0
2018-Apr-20 06:30N 37°48' W 122°24'0 0.0
2018-Apr-20 06:00N 37°48' W 122°24'0 0.0
2018-Apr-20 05:30N 37°48' W 122°24'0 0.0
2018-Apr-20 05:01N 37°48' W 122°24'0 0.0
2018-Apr-20 04:30N 37°48' W 122°24'0 0.0
2018-Apr-20 04:01N 37°48' W 122°24'0 0.0
2018-Apr-20 03:30N 37°48' W 122°24'0 0.0
2018-Apr-20 03:00N 37°48' W 122°24'0 0.0
2018-Apr-20 02:30N 37°48' W 122°24'0 0.0
2018-Apr-20 02:00N 37°48' W 122°24'0 0.0
2018-Apr-20 01:31N 37°48' W 122°24'0 0.0
2018-Apr-20 01:00N 37°48' W 122°24'0 0.0
2018-Apr-20 00:30N 37°48' W 122°24'0 0.0
2018-Apr-20 00:01N 37°48' W 122°24'0 0.0
2018-Apr-19 23:30N 37°48' W 122°24'0 0.0
2018-Apr-19 23:01N 37°48' W 122°24'0 0.0
2018-Apr-19 22:30N 37°48' W 122°24'0 0.0
2018-Apr-19 22:01N 37°48' W 122°24'0 0.0
2018-Apr-19 21:30N 37°48' W 122°24'0 0.0
2018-Apr-19 21:00N 37°48' W 122°24'0 0.0
2018-Apr-19 20:30N 37°48' W 122°24'0 0.0
2018-Apr-19 20:00N 37°48' W 122°24'0 0.0
2018-Apr-19 19:30N 37°48' W 122°24'0 0.0
2018-Apr-19 19:00N 37°48' W 122°24'0 0.0
2018-Apr-19 18:30N 37°48' W 122°24'2 3.8
2018-Apr-19 18:00N 37°50' W 122°24'510.7
2018-Apr-19 17:31N 37°55' W 122°25'1 1.1
2018-Apr-19 17:01N 37°55' W 122°25'0 0.2
2018-Apr-19 16:30N 37°56' W 122°25'3 6.4
2018-Apr-19 16:00N 37°52' W 122°25'4 8.3
2018-Apr-19 15:30N 37°48' W 122°24'0 0.0
2018-Apr-19 15:00N 37°48' W 122°24'0 0.0
2018-Apr-19 14:30N 37°48' W 122°24'0 0.0
2018-Apr-19 14:00N 37°48' W 122°24'0 0.0
2018-Apr-19 13:30N 37°48' W 122°24'0 0.0
2018-Apr-19 13:00N 37°48' W 122°24'0 0.0
2018-Apr-19 12:31N 37°48' W 122°24'0 0.0
2018-Apr-19 12:01N 37°48' W 122°24'0 0.0
2018-Apr-19 11:30N 37°48' W 122°24'0 0.0
2018-Apr-19 11:00N 37°48' W 122°24'0 0.0
2018-Apr-19 10:30N 37°48' W 122°24'0 0.0
2018-Apr-19 10:00N 37°48' W 122°24'0 0.0
2018-Apr-19 09:30N 37°48' W 122°24'0 0.0
2018-Apr-19 09:00N 37°48' W 122°24'0 0.0
2018-Apr-19 08:30N 37°48' W 122°24'0 0.0
2018-Apr-19 08:00N 37°48' W 122°24'0 0.0
2018-Apr-19 07:31N 37°48' W 122°24'0 0.0
2018-Apr-19 07:00N 37°48' W 122°24'0 0.0
2018-Apr-19 06:30N 37°48' W 122°24'0 0.0
2018-Apr-19 06:00N 37°48' W 122°24'0 0.0
2018-Apr-19 05:30N 37°48' W 122°24'0 0.0
2018-Apr-19 05:00N 37°48' W 122°24'0 0.0
2018-Apr-19 04:30N 37°48' W 122°24'0 0.0
2018-Apr-19 04:00N 37°48' W 122°24'0 0.0
2018-Apr-19 03:30N 37°48' W 122°24'0 0.0
2018-Apr-19 03:00N 37°48' W 122°24'0 0.0
2018-Apr-19 02:29N 37°48' W 122°24'0 0.0
2018-Apr-19 02:00N 37°48' W 122°24'0 0.0
2018-Apr-19 01:30N 37°48' W 122°24'2 4.6
2018-Apr-19 01:01N 37°48' W 122°21'1 2.2
2018-Apr-19 00:30N 37°49' W 122°20'2 3.1
2018-Apr-19 00:00N 37°48' W 122°22'2 3.0
2018-Apr-18 23:30N 37°49' W 122°23'1 1.5
2018-Apr-18 23:00N 37°49' W 122°24'0 1.0
2018-Apr-18 22:30N 37°49' W 122°24'0 0.0
2018-Apr-18 22:00N 37°49' W 122°24'0 0.0
2018-Apr-18 21:31N 37°49' W 122°24'2 3.7
2018-Apr-18 21:01N 37°49' W 122°27'2 4.7
2018-Apr-18 20:30N 37°48' W 122°24'0 0.0
2018-Apr-18 20:00N 37°48' W 122°24'0 0.0
2018-Apr-18 19:30N 37°48' W 122°24'0 0.0
2018-Apr-18 19:01N 37°48' W 122°24'0 0.0
2018-Apr-18 18:30N 37°48' W 122°24'0 0.0
2018-Apr-18 18:00N 37°48' W 122°24'0 0.0
2018-Apr-18 17:30N 37°48' W 122°24'0 0.0
2018-Apr-18 17:00N 37°48' W 122°24'3 5.3
2018-Apr-18 16:30N 37°48' W 122°21'1 2.4
2018-Apr-18 16:01N 37°48' W 122°19'1 1.8
2018-Apr-18 15:30N 37°47' W 122°18'1 1.1
2018-Apr-18 15:00N 37°48' W 122°17'2 3.2
2018-Apr-18 14:31N 37°48' W 122°19'2 4.8
2018-Apr-18 14:00N 37°48' W 122°22'1 2.6
2018-Apr-18 13:30N 37°48' W 122°24'0 0.0
2018-Apr-18 13:00N 37°48' W 122°24'0 0.0
2018-Apr-18 12:30N 37°48' W 122°24'0 0.0
2018-Apr-18 12:00N 37°48' W 122°24'0 0.0
2018-Apr-18 11:29N 37°48' W 122°24'0 0.0
2018-Apr-18 11:00N 37°48' W 122°24'0 0.0
2018-Apr-18 10:30N 37°48' W 122°24'0 0.0
2018-Apr-18 10:00N 37°48' W 122°24'0 0.0
2018-Apr-18 09:30N 37°48' W 122°24'0 0.0
2018-Apr-18 09:00N 37°48' W 122°24'0 0.0
2018-Apr-18 08:30N 37°48' W 122°24'0 0.0
2018-Apr-18 08:00N 37°48' W 122°24'0 0.0
2018-Apr-18 07:30N 37°48' W 122°24'0 0.0
2018-Apr-18 07:00N 37°48' W 122°24'0 0.0
2018-Apr-18 06:30N 37°48' W 122°24'0 0.0
2018-Apr-18 06:00N 37°48' W 122°24'0 0.0
2018-Apr-18 05:30N 37°48' W 122°24'0 0.0
2018-Apr-18 05:00N 37°48' W 122°24'0 0.0
2018-Apr-18 04:30N 37°48' W 122°24'0 0.0
2018-Apr-18 04:00N 37°48' W 122°24'0 0.0
2018-Apr-18 03:30N 37°48' W 122°24'0 0.0
2018-Apr-18 03:00N 37°48' W 122°24'0 0.0
2018-Apr-18 02:30N 37°48' W 122°24'0 0.0
2018-Apr-18 02:01N 37°48' W 122°24'0 0.0
2018-Apr-18 01:30N 37°48' W 122°24'0 0.0
2018-Apr-18 01:00N 37°48' W 122°24'0 0.0
2018-Apr-18 00:30N 37°48' W 122°24'0 0.0
2018-Apr-18 00:00N 37°48' W 122°24'0 0.0
2018-Apr-17 23:30N 37°48' W 122°24'1 2.8
2018-Apr-17 23:01N 37°50' W 122°24'5 9.4
2018-Apr-17 22:30N 37°54' W 122°25'1 2.4
2018-Apr-17 22:00N 37°55' W 122°25'1 2.5
2018-Apr-17 21:31N 37°54' W 122°25'4 7.2
2018-Apr-17 21:00N 37°51' W 122°24'3 5.0
2018-Apr-17 20:30N 37°48' W 122°24'0 0.0
2018-Apr-17 20:00N 37°48' W 122°24'0 0.0
2018-Apr-17 19:31N 37°48' W 122°24'0 0.0
2018-Apr-17 19:00N 37°48' W 122°24'0 0.0
2018-Apr-17 18:30N 37°48' W 122°24'0 0.0
2018-Apr-17 18:00N 37°48' W 122°24'0 0.0
2018-Apr-17 17:30N 37°48' W 122°24'0 0.0
2018-Apr-17 17:00N 37°48' W 122°24'0 0.0
2018-Apr-17 16:31N 37°48' W 122°24'0 0.0
2018-Apr-17 16:00N 37°48' W 122°24'0 0.0
2018-Apr-17 15:30N 37°48' W 122°24'0 0.0
2018-Apr-17 15:00N 37°48' W 122°24'0 0.0
2018-Apr-17 14:30N 37°48' W 122°24'0 0.0
2018-Apr-17 14:00N 37°48' W 122°24'0 0.0
2018-Apr-17 13:30N 37°48' W 122°24'0 0.0
2018-Apr-17 13:00N 37°48' W 122°24'0 0.0
2018-Apr-17 12:30N 37°48' W 122°24'4 7.6
2018-Apr-17 12:00N 37°49' W 122°29'2 3.7
2018-Apr-17 11:31N 37°49' W 122°31'4 9.0
2018-Apr-17 11:01N 37°51' W 122°26'4 8.5
2018-Apr-17 10:30N 37°55' W 122°25'1 1.3
2018-Apr-17 10:00N 37°55' W 122°25'0 0.0
2018-Apr-17 09:30N 37°55' W 122°25'1 1.8
2018-Apr-17 09:00N 37°56' W 122°26'4 7.1
2018-Apr-17 08:30N 37°60' W 122°25'4 8.2
2018-Apr-17 08:00N 38°02' W 122°21'4 8.5
2018-Apr-17 07:30N 38°04' W 122°16'6 8.0
2018-Apr-17 06:48N 38°02' W 122°09'1 1.2
2018-Apr-17 06:08N 38°02' W 122°08'0 0.5
2018-Apr-17 05:55N 38°02' W 122°08'3 7.4
2018-Apr-17 05:30N 38°03' W 122°12'4 8.9
2018-Apr-17 05:00N 38°03' W 122°17'4 8.4
2018-Apr-17 04:30N 38°02' W 122°22'5 9.8
2018-Apr-17 04:00N 37°58' W 122°26'510.2
2018-Apr-17 03:30N 37°53' W 122°25'4 8.9
2018-Apr-17 03:01N 37°48' W 122°24'0 0.0
2018-Apr-17 02:30N 37°48' W 122°24'0 0.0
2018-Apr-17 02:00N 37°48' W 122°24'0 0.0
2018-Apr-17 01:30N 37°48' W 122°24'0 0.0
2018-Apr-17 01:00N 37°48' W 122°24'0 0.0
2018-Apr-17 00:30N 37°48' W 122°24'0 0.0
2018-Apr-17 00:00N 37°48' W 122°24'0 0.0
2018-Apr-16 23:30N 37°48' W 122°24'0 0.0
2018-Apr-16 23:00N 37°48' W 122°24'0 0.0
2018-Apr-16 22:30N 37°48' W 122°24'0 0.0
2018-Apr-16 22:00N 37°48' W 122°24'0 0.0
2018-Apr-16 21:30N 37°48' W 122°24'0 0.0
2018-Apr-16 21:00N 37°48' W 122°24'2 4.7
2018-Apr-16 20:31N 37°51' W 122°24'5 9.8
2018-Apr-16 20:00N 37°55' W 122°25'3 5.6
2018-Apr-16 19:30N 37°55' W 122°22'0 0.2
2018-Apr-16 19:00N 37°55' W 122°22'0 0.4
2018-Apr-16 18:30N 37°55' W 122°22'0 0.0
2018-Apr-16 18:00N 37°55' W 122°22'0 0.0
2018-Apr-16 17:30N 37°55' W 122°22'0 0.0
2018-Apr-16 17:00N 37°55' W 122°22'0 0.0
2018-Apr-16 16:30N 37°55' W 122°22'0 0.0
2018-Apr-16 16:00N 37°55' W 122°22'0 0.0
2018-Apr-16 15:30N 37°55' W 122°22'0 0.0
2018-Apr-16 15:00N 37°55' W 122°22'0 0.0
2018-Apr-16 14:30N 37°55' W 122°22'0 0.5
2018-Apr-16 14:01N 37°55' W 122°22'0 0.2
2018-Apr-16 13:30N 37°55' W 122°22'1 2.5
2018-Apr-16 13:01N 37°54' W 122°23'2 3.6
2018-Apr-16 12:30N 37°54' W 122°25'2 3.2
2018-Apr-16 12:00N 37°55' W 122°25'0 0.0
2018-Apr-16 11:30N 37°55' W 122°25'0 0.0
2018-Apr-16 11:01N 37°55' W 122°25'0 0.0
2018-Apr-16 10:30N 37°55' W 122°25'0 0.0
2018-Apr-16 10:00N 37°55' W 122°25'0 0.0
2018-Apr-16 09:30N 37°55' W 122°25'0 0.0
2018-Apr-16 09:00N 37°55' W 122°25'4 7.8
2018-Apr-16 08:30N 37°59' W 122°25'5 8.4
2018-Apr-16 07:54N 38°02' W 122°20'4 8.4
2018-Apr-16 07:29N 38°04' W 122°16'4 7.8
2018-Apr-16 07:00N 38°03' W 122°11'3 2.5
2018-Apr-16 05:52N 38°02' W 122°08'1 0.1
2018-Apr-16 00:35N 38°02' W 122°09'0 0.2
2018-Apr-15 22:37N 38°02' W 122°08'1 7.6
2018-Apr-15 22:30N 38°02' W 122°09'0 0.1
2018-Apr-15 19:53N 38°02' W 122°09'1 0.2
2018-Apr-15 16:40N 38°02' W 122°08'2 0.6
2018-Apr-15 13:51N 38°03' W 122°10'2 6.6
2018-Apr-15 13:30N 38°04' W 122°13'3 6.4
2018-Apr-15 13:00N 38°03' W 122°17'3 7.0
2018-Apr-15 12:30N 38°02' W 122°21'4 7.4
2018-Apr-15 12:00N 37°60' W 122°25'4 7.0
2018-Apr-15 11:30N 37°56' W 122°26'4 7.9
2018-Apr-15 11:00N 37°52' W 122°24'5 9.9
2018-Apr-15 10:30N 37°49' W 122°20'0 0.4
2018-Apr-15 10:00N 37°48' W 122°20'0 0.1
2018-Apr-15 09:30N 37°48' W 122°21'3 5.4
2018-Apr-15 09:01N 37°48' W 122°24'0 0.0
2018-Apr-15 08:30N 37°48' W 122°24'0 0.0
2018-Apr-15 08:00N 37°48' W 122°24'0 0.0
2018-Apr-15 07:31N 37°48' W 122°24'0 0.0
2018-Apr-15 07:00N 37°48' W 122°24'0 0.0
2018-Apr-15 06:30N 37°48' W 122°24'0 0.0
2018-Apr-15 06:01N 37°48' W 122°24'0 0.0
2018-Apr-15 05:30N 37°48' W 122°24'0 0.3
2018-Apr-15 05:00N 37°48' W 122°24'510.3
2018-Apr-15 04:31N 37°53' W 122°25'2 4.2
2018-Apr-15 04:00N 37°55' W 122°25'0 0.8
2018-Apr-15 03:30N 37°55' W 122°25'3 5.6
2018-Apr-15 03:00N 37°53' W 122°25'4 8.7
2018-Apr-15 02:30N 37°48' W 122°24'0 0.4
2018-Apr-15 02:00N 37°48' W 122°24'0 0.0
2018-Apr-15 01:30N 37°48' W 122°24'0 0.0
2018-Apr-15 01:00N 37°48' W 122°24'0 0.0
2018-Apr-15 00:30N 37°48' W 122°24'2 3.9
2018-Apr-15 00:00N 37°48' W 122°21'1 1.7
2018-Apr-14 23:30N 37°48' W 122°20'1 1.5
2018-Apr-14 23:00N 37°49' W 122°20'2 4.8
2018-Apr-14 22:30N 37°48' W 122°23'1 1.8
2018-Apr-14 22:00N 37°49' W 122°23'2 4.8
2018-Apr-14 21:30N 37°51' W 122°24'713.4
2018-Apr-14 20:59N 37°58' W 122°26'612.2
2018-Apr-14 20:30N 38°02' W 122°21'611.4
2018-Apr-14 20:00N 38°04' W 122°14'4 2.5
2018-Apr-14 18:27N 38°02' W 122°09'1 0.8
2018-Apr-14 17:29N 38°02' W 122°08'3 6.5
2018-Apr-14 17:00N 38°03' W 122°12'4 8.8
2018-Apr-14 16:30N 38°03' W 122°17'3 6.2
2018-Apr-14 16:01N 38°02' W 122°21'5 9.2
2018-Apr-14 15:30N 37°59' W 122°25'5 9.4
2018-Apr-14 15:00N 37°55' W 122°27'4 9.1
2018-Apr-14 14:31N 37°51' W 122°24'4 7.0
2018-Apr-14 14:01N 37°49' W 122°28'2 3.4
2018-Apr-14 13:30N 37°48' W 122°30'0 0.4
2018-Apr-14 13:01N 37°48' W 122°30'3 5.4
2018-Apr-14 12:30N 37°49' W 122°27'3 5.3
2018-Apr-14 12:00N 37°48' W 122°24'0 0.0
2018-Apr-14 11:31N 37°48' W 122°24'0 0.0
2018-Apr-14 11:00N 37°48' W 122°24'0 0.0
2018-Apr-14 10:31N 37°48' W 122°24'0 0.0
2018-Apr-14 10:00N 37°48' W 122°24'0 0.0
2018-Apr-14 09:31N 37°48' W 122°24'0 0.0
2018-Apr-14 09:01N 37°48' W 122°24'0 0.0
2018-Apr-14 08:31N 37°48' W 122°24'0 0.0
2018-Apr-14 08:01N 37°48' W 122°24'0 0.0
2018-Apr-14 07:30N 37°48' W 122°24'0 0.0
2018-Apr-14 07:00N 37°48' W 122°24'  

Dump ship's entire track history